createdAt,value
2019-01-10T00:03:04.946Z,98594.06
2019-01-10T00:05:15.977Z,98606.45
2019-01-10T00:07:26.754Z,98612.00
2019-01-10T00:09:37.572Z,98609.33
2019-01-10T00:11:48.371Z,98615.40
2019-01-10T00:13:59.211Z,98615.00
2019-01-10T00:16:10.009Z,98617.15
2019-01-10T00:18:20.794Z,98614.66
2019-01-10T00:20:31.620Z,98620.98
2019-01-10T00:22:42.432Z,98620.63
2019-01-10T00:24:53.244Z,98616.31
2019-01-10T00:27:04.033Z,98622.66
2019-01-10T00:29:14.830Z,98623.54
2019-01-10T00:31:25.765Z,98621.78
2019-01-10T00:33:36.557Z,98615.00
2019-01-10T00:35:47.377Z,98618.75
2019-01-10T00:37:58.165Z,98619.23
2019-01-10T00:40:50.635Z,98630.70
2019-01-10T00:43:01.538Z,98635.45
2019-01-10T00:45:54.002Z,98639.28
2019-01-10T00:48:04.802Z,98634.97
2019-01-10T00:50:57.271Z,98644.72
2019-01-10T00:53:08.088Z,98643.48
2019-01-10T00:55:38.882Z,98650.38
2019-01-10T00:57:49.704Z,98650.38
2019-01-10T01:00:00.550Z,98647.42
2019-01-10T01:02:11.336Z,98646.08
2019-01-10T01:04:22.144Z,98646.91
2019-01-10T01:06:32.962Z,98655.89
2019-01-10T01:08:43.857Z,98653.81
2019-01-10T01:10:54.667Z,98660.53
2019-01-10T01:13:47.121Z,98651.98
2019-01-10T01:15:57.932Z,98663.12
2019-01-10T01:18:08.727Z,98658.13
2019-01-10T01:21:01.206Z,98663.23
2019-01-10T01:23:12.013Z,98658.93
2019-01-10T01:25:22.810Z,98664.08
2019-01-10T01:27:33.631Z,98664.48
2019-01-10T01:29:44.468Z,98672.11
2019-01-10T01:31:55.311Z,98671.27
2019-01-10T01:34:06.207Z,98663.23
2019-01-10T01:36:17.114Z,98669.16
2019-01-10T01:38:27.941Z,98681.06
2019-01-10T01:40:38.755Z,98675.11
2019-01-10T01:42:49.568Z,98681.13
2019-01-10T01:45:00.383Z,98685.80
2019-01-10T01:47:11.194Z,98691.72
2019-01-10T01:50:03.734Z,98690.44
2019-01-10T01:52:14.636Z,98690.00
2019-01-10T01:54:25.440Z,98694.65
2019-01-10T01:56:36.232Z,98698.95
2019-01-10T01:58:47.053Z,98700.59
2019-01-10T02:00:57.842Z,98707.86
2019-01-10T02:03:08.671Z,98704.47
2019-01-10T02:05:19.565Z,98706.59
2019-01-10T02:07:30.362Z,98711.66
2019-01-10T02:09:41.188Z,98717.62
2019-01-10T02:14:24.464Z,98720.17
2019-01-10T02:16:35.261Z,98719.77
2019-01-10T02:18:46.083Z,98721.96
2019-01-10T02:20:56.865Z,98724.48
2019-01-10T02:23:07.879Z,98720.28
2019-01-10T02:25:18.798Z,98724.14
2019-01-10T02:27:29.605Z,98721.09
2019-01-10T02:29:40.414Z,98724.95
2019-01-10T02:31:51.221Z,98731.28
2019-01-10T02:34:02.131Z,98723.64
2019-01-10T02:36:12.934Z,98728.35
2019-01-10T02:38:23.732Z,98729.63
2019-01-10T02:40:34.659Z,98731.31
2019-01-10T02:42:45.465Z,98733.87
2019-01-10T02:44:56.284Z,98728.75
2019-01-10T02:47:07.086Z,98728.32
2019-01-10T02:49:17.897Z,98734.77
2019-01-10T02:51:28.723Z,98731.38
2019-01-10T02:53:39.513Z,98733.09
2019-01-10T02:55:50.343Z,98729.66
2019-01-10T02:58:01.138Z,98730.97
2019-01-10T03:00:53.637Z,98731.38
2019-01-10T03:03:04.429Z,98734.77
2019-01-10T03:05:15.319Z,98735.62
2019-01-10T03:07:26.132Z,98737.23
2019-01-10T03:09:36.923Z,98735.98
2019-01-10T03:11:47.748Z,98732.16
2019-01-10T03:13:58.557Z,98731.31
2019-01-10T03:16:09.369Z,98731.31
2019-01-10T03:18:20.162Z,98727.48
2019-01-10T03:20:30.959Z,98727.87
2019-01-10T03:22:41.786Z,98722.37
2019-01-10T03:24:52.585Z,98726.57
2019-01-10T03:27:03.392Z,98721.42
2019-01-10T03:29:14.211Z,98718.90
2019-01-10T03:31:25.039Z,98720.21
2019-01-10T03:33:35.954Z,98721.89
2019-01-10T03:35:46.848Z,98720.14
2019-01-10T03:37:57.658Z,98722.27
2019-01-10T03:40:50.135Z,98723.10
2019-01-10T03:43:00.960Z,98723.10
2019-01-10T03:45:53.406Z,98717.62
2019-01-10T03:48:04.215Z,98721.09
2019-01-10T03:50:56.670Z,98721.89
2019-01-10T03:53:07.501Z,98726.09
2019-01-10T03:55:18.300Z,98724.38
2019-01-10T03:57:29.145Z,98729.56
2019-01-10T03:59:40.040Z,98738.55
2019-01-10T04:01:50.848Z,98730.88
2019-01-10T04:04:01.697Z,98730.88
2019-01-10T04:06:12.477Z,98726.94
2019-01-10T04:08:23.293Z,98730.41
2019-01-10T04:10:34.072Z,98733.40
2019-01-10T04:12:45.016Z,98732.56
2019-01-10T04:14:55.798Z,98735.52
2019-01-10T04:17:06.719Z,98731.21
2019-01-10T04:19:17.539Z,98733.40
2019-01-10T04:21:28.337Z,98732.16
2019-01-10T04:23:39.140Z,98730.00
2019-01-10T04:25:49.938Z,98733.80
2019-01-10T04:28:00.741Z,98735.05
2019-01-10T04:30:33.333Z,98744.84
2019-01-10T04:32:44.137Z,98744.43
2019-01-10T04:34:54.951Z,98742.28
2019-01-10T04:37:05.790Z,98742.28
2019-01-10T04:39:16.608Z,98742.21
2019-01-10T04:41:27.499Z,98745.64
2019-01-10T04:43:38.293Z,98750.75
2019-01-10T04:45:49.093Z,98742.58
2019-01-10T04:47:59.892Z,98748.97
2019-01-10T04:50:52.390Z,98752.81
2019-01-10T04:53:03.175Z,98747.73
2019-01-10T04:55:13.997Z,98752.41
2019-01-10T04:57:24.823Z,98743.92
2019-01-10T04:59:35.734Z,98752.84
2019-01-10T05:01:46.539Z,98754.12
2019-01-10T05:03:57.344Z,98765.93
2019-01-10T05:06:08.153Z,98763.41
2019-01-10T05:08:18.951Z,98768.16
2019-01-10T05:10:29.774Z,98760.48
2019-01-10T05:12:41.820Z,98769.00
2019-01-10T05:14:53.265Z,98771.08
2019-01-10T05:17:04.176Z,98770.27
2019-01-10T05:19:14.989Z,98775.42
2019-01-10T05:21:25.804Z,98776.33
2019-01-10T05:23:36.589Z,98774.17
2019-01-10T05:25:47.397Z,98781.84
2019-01-10T05:27:58.220Z,98782.25
2019-01-10T05:30:50.667Z,98785.59
2019-01-10T05:33:01.496Z,98786.67
2019-01-10T05:35:12.406Z,98785.89
2019-01-10T05:37:23.231Z,98783.48
2019-01-10T05:39:34.039Z,98789.68
2019-01-10T05:41:44.859Z,98798.15
2019-01-10T05:43:55.653Z,98799.16
2019-01-10T05:46:06.453Z,98798.94
2019-01-10T05:48:17.319Z,98805.86
2019-01-10T05:50:28.092Z,98794.89
2019-01-10T05:52:39.015Z,98802.60
2019-01-10T05:54:49.834Z,98812.00
2019-01-10T05:57:00.623Z,98814.23
2019-01-10T05:59:11.453Z,98824.56
2019-01-10T06:01:22.347Z,98813.42
2019-01-10T06:03:33.159Z,98818.53
2019-01-10T06:05:43.948Z,98821.59
2019-01-10T06:07:54.858Z,98828.06
2019-01-10T06:10:47.318Z,98823.34
2019-01-10T06:12:58.124Z,98825.91
2019-01-10T06:15:50.577Z,98822.51
2019-01-10T06:18:01.380Z,98831.49
2019-01-10T06:20:32.041Z,98832.36
2019-01-10T06:22:42.843Z,98836.98
2019-01-10T06:24:53.660Z,98834.02
2019-01-10T06:27:04.445Z,98836.14
2019-01-10T06:29:15.252Z,98832.73
2019-01-10T06:31:26.059Z,98839.16
2019-01-10T06:33:36.910Z,98842.97
2019-01-10T06:35:47.725Z,98848.55
2019-01-10T06:37:58.632Z,98849.02
2019-01-10T06:40:51.105Z,98844.75
2019-01-10T06:43:01.909Z,98849.40
2019-01-10T06:45:54.368Z,98848.55
2019-01-10T06:48:05.156Z,98852.39
2019-01-10T06:50:57.638Z,98853.67
2019-01-10T06:53:08.446Z,98854.95
2019-01-10T06:55:19.263Z,98854.05
2019-01-10T06:57:30.054Z,98849.30
2019-01-10T06:59:40.900Z,98857.78
2019-01-10T07:01:51.705Z,98862.09
2019-01-10T07:04:02.685Z,98865.52
2019-01-10T07:06:13.498Z,98868.92
2019-01-10T07:08:24.300Z,98869.39
2019-01-10T07:10:35.113Z,98873.60
2019-01-10T07:13:05.791Z,98871.05
2019-01-10T07:15:16.638Z,98871.05
2019-01-10T07:17:27.456Z,98880.00
2019-01-10T07:19:58.128Z,98883.84
2019-01-10T07:22:08.942Z,98885.98
2019-01-10T07:24:21.186Z,98892.84
2019-01-10T07:26:32.531Z,98893.14
2019-01-10T07:28:43.430Z,98900.86
2019-01-10T07:33:32.688Z,98898.03
2019-01-10T07:36:25.142Z,98901.13
2019-01-10T07:38:35.971Z,98902.44
2019-01-10T07:40:46.768Z,98902.09
2019-01-10T07:42:57.724Z,98904.24
2019-01-10T07:45:50.163Z,98903.81
2019-01-10T07:48:42.614Z,98903.81
2019-01-10T07:50:53.414Z,98904.27
2019-01-10T07:53:04.333Z,98906.45
2019-01-10T07:55:15.129Z,98902.56
2019-01-10T07:57:25.949Z,98907.61
2019-01-10T07:59:36.756Z,98903.80
2019-01-10T08:01:47.645Z,98917.88
2019-01-10T08:03:58.475Z,98919.59
2019-01-10T08:06:09.386Z,98927.67
2019-01-10T08:08:20.318Z,98932.30
2019-01-10T08:13:03.692Z,98939.56
2019-01-10T08:15:56.127Z,98942.53
2019-01-10T08:18:06.940Z,98946.34
2019-01-10T08:20:18.147Z,98949.39
2019-01-10T08:22:30.703Z,98948.98
2019-01-10T08:24:41.513Z,98948.95
2019-01-10T08:26:52.312Z,98957.48
2019-01-10T08:29:03.132Z,98953.26
2019-01-10T08:31:13.943Z,98960.55
2019-01-10T08:33:24.779Z,98963.55
2019-01-10T08:35:35.657Z,98966.11
2019-01-10T08:37:46.568Z,98972.92
2019-01-10T08:39:57.383Z,98976.34
2019-01-10T08:42:08.174Z,98975.91
2019-01-10T08:44:19.013Z,98978.52
2019-01-10T08:46:29.777Z,98978.47
2019-01-10T08:48:40.574Z,98978.47
2019-01-10T08:50:51.388Z,98977.19
2019-01-10T08:53:02.287Z,98980.27
2019-01-10T08:55:13.114Z,98984.95
2019-01-10T08:57:23.917Z,98980.56
2019-01-10T08:59:34.710Z,98983.12
2019-01-10T09:01:45.525Z,98986.03
2019-01-10T09:03:56.337Z,98991.85
2019-01-10T09:06:08.214Z,98993.52
2019-01-10T09:08:19.968Z,98995.25
2019-01-10T09:10:30.892Z,98994.33
2019-01-10T09:12:41.685Z,98992.23
2019-01-10T09:14:52.499Z,98990.45
2019-01-10T09:17:03.406Z,98993.02
2019-01-10T09:19:14.311Z,99001.48
2019-01-10T09:21:25.118Z,99000.23
2019-01-10T09:23:55.817Z,99009.97
2019-01-10T09:26:06.643Z,99009.97
2019-01-10T09:28:17.446Z,99008.25
2019-01-10T09:30:28.281Z,99008.25
2019-01-10T09:32:39.103Z,99015.03
2019-01-10T09:34:50.000Z,99010.47
2019-01-10T09:37:08.233Z,99016.46
2019-01-10T09:39:19.053Z,99025.45
2019-01-10T09:41:29.871Z,99021.17
2019-01-10T09:43:40.843Z,99023.64
2019-01-10T09:45:51.653Z,99020.70
2019-01-10T09:48:02.667Z,99026.17
2019-01-10T09:50:55.144Z,99030.05
2019-01-10T09:53:06.059Z,99027.48
2019-01-10T09:55:16.870Z,99033.48
2019-01-10T09:57:27.690Z,99034.33
2019-01-10T09:59:38.490Z,99037.32
2019-01-10T10:02:31.044Z,99035.17
2019-01-10T10:04:41.836Z,99037.27
2019-01-10T10:06:52.649Z,99033.86
2019-01-10T10:09:45.099Z,99042.38
2019-01-10T10:11:55.932Z,99037.27
2019-01-10T10:14:06.918Z,99044.02
2019-01-10T10:16:17.813Z,99041.48
2019-01-10T10:18:28.654Z,99039.83
2019-01-10T10:20:39.506Z,99042.70
2019-01-10T10:22:50.400Z,99042.20
2019-01-10T10:25:01.414Z,99043.42
2019-01-10T10:27:12.204Z,99039.20
2019-01-10T10:29:23.019Z,99048.98
2019-01-10T10:31:33.953Z,99048.11
2019-01-10T10:33:44.909Z,99047.17
2019-01-10T10:35:55.720Z,99047.64
2019-01-10T10:38:06.543Z,99045.11
2019-01-10T10:40:59.006Z,99051.11
2019-01-10T10:43:09.834Z,99047.70
2019-01-10T10:45:20.770Z,99047.23
2019-01-10T10:47:31.564Z,99047.20
2019-01-10T10:49:42.392Z,99041.64
2019-01-10T10:51:53.231Z,99054.48
2019-01-10T10:54:04.151Z,99054.08
2019-01-10T10:56:15.005Z,99048.11
2019-01-10T10:58:25.943Z,99045.92
2019-01-10T11:00:36.736Z,99048.02
2019-01-10T11:02:47.531Z,99044.61
2019-01-10T11:04:58.335Z,99052.29
2019-01-10T11:07:09.123Z,99047.95
2019-01-10T11:09:19.962Z,99050.00
2019-01-10T11:11:30.758Z,99046.16
2019-01-10T11:13:41.568Z,99049.59
2019-01-10T11:15:52.401Z,99044.84
2019-01-10T11:18:03.388Z,99047.00
2019-01-10T11:20:55.862Z,99046.16
2019-01-10T11:23:10.875Z,99042.75
2019-01-10T11:26:01.217Z,99049.53
2019-01-10T11:28:12.010Z,99041.81
2019-01-10T11:30:22.923Z,99043.50
2019-01-10T11:32:33.733Z,99043.46
2019-01-10T11:34:44.558Z,99040.49
2019-01-10T11:36:55.371Z,99041.73
2019-01-10T11:39:47.847Z,99042.18
2019-01-10T11:41:58.657Z,99041.70
2019-01-10T11:44:09.569Z,99042.11
2019-01-10T11:46:20.502Z,99039.11
2019-01-10T11:48:31.309Z,99037.09
2019-01-10T11:50:42.126Z,99035.41
2019-01-10T11:52:52.932Z,99033.69
2019-01-10T11:55:45.402Z,99035.38
2019-01-10T11:57:56.185Z,99037.53
2019-01-10T12:00:27.397Z,99033.62
2019-01-10T12:02:38.200Z,99037.50
2019-01-10T12:04:48.998Z,99032.00
2019-01-10T12:06:59.924Z,99029.37
2019-01-10T12:09:10.732Z,99028.05
2019-01-10T12:11:21.549Z,99028.75
2019-01-10T12:13:32.394Z,99025.67
2019-01-10T12:15:43.211Z,99030.50
2019-01-10T12:17:54.061Z,99026.66
2019-01-10T12:20:24.867Z,99019.99
2019-01-10T12:22:35.687Z,99021.68
2019-01-10T12:24:46.476Z,99021.27
2019-01-10T12:26:57.316Z,99028.62
2019-01-10T12:29:08.198Z,99023.47
2019-01-10T12:31:19.024Z,99020.54
2019-01-10T12:33:29.872Z,99022.19
2019-01-10T12:35:40.664Z,99023.06
2019-01-10T12:37:51.580Z,99022.66
2019-01-10T12:40:44.029Z,99023.88
2019-01-10T12:42:54.846Z,99023.88
2019-01-10T12:45:47.307Z,99018.34
2019-01-10T12:47:58.155Z,99017.94
2019-01-10T12:50:50.580Z,99016.22
2019-01-10T12:55:20.071Z,99013.15
2019-01-10T12:57:30.896Z,99013.19
2019-01-10T12:59:41.721Z,99013.66
2019-01-10T13:01:52.535Z,99010.22
2019-01-10T13:04:03.349Z,99016.15
2019-01-10T13:06:14.160Z,99014.76
2019-01-10T13:08:24.986Z,99015.93
2019-01-10T13:10:35.804Z,99022.85
2019-01-10T13:13:28.301Z,99019.45
2019-01-10T13:15:39.072Z,99017.61
2019-01-10T13:17:49.869Z,99018.42
2019-01-10T13:20:00.688Z,99021.46
2019-01-10T13:22:11.595Z,99019.26
2019-01-10T13:24:22.417Z,99025.19
2019-01-10T13:26:33.197Z,99027.67
2019-01-10T13:28:44.032Z,99025.41
2019-01-10T13:30:54.861Z,99026.39
2019-01-10T13:33:05.778Z,99026.11
2019-01-10T13:35:16.712Z,99022.95
2019-01-10T13:37:27.529Z,99025.10
2019-01-10T13:39:38.348Z,99028.73
2019-01-10T13:41:49.164Z,99032.12
2019-01-10T13:44:00.083Z,99038.29
2019-01-10T13:46:11.012Z,99036.92
2019-01-10T13:48:21.820Z,99040.91
2019-01-10T13:50:32.747Z,99036.36
2019-01-10T13:52:43.636Z,99036.89
2019-01-10T13:54:54.459Z,99043.02
2019-01-10T13:57:05.304Z,99044.83
2019-01-10T13:59:16.114Z,99039.74
2019-01-10T14:01:27.062Z,99044.55
2019-01-10T14:03:37.935Z,99045.03
2019-01-10T14:05:48.861Z,99050.23
2019-01-10T14:07:59.765Z,99052.84
2019-01-10T14:10:52.229Z,99058.41
2019-01-10T14:13:03.144Z,99053.39
2019-01-10T14:15:33.848Z,99056.06
2019-01-10T14:17:44.859Z,99061.52
2019-01-10T14:22:28.132Z,99060.45
2019-01-10T14:24:38.989Z,99059.58
2019-01-10T14:26:49.782Z,99057.95
2019-01-10T14:29:00.697Z,99066.48
2019-01-10T14:31:11.662Z,99063.02
2019-01-10T14:33:22.506Z,99062.17
2019-01-10T14:35:33.440Z,99066.05
2019-01-10T14:37:44.380Z,99061.33
2019-01-10T14:39:55.184Z,99067.77
2019-01-10T14:42:06.022Z,99068.62
2019-01-10T14:44:16.826Z,99071.62
2019-01-10T14:46:27.639Z,99078.94
2019-01-10T14:48:38.449Z,99080.25
2019-01-10T14:50:49.268Z,99089.66
2019-01-10T14:53:00.122Z,99085.41
2019-01-10T14:55:52.617Z,99092.22
2019-01-10T14:58:45.082Z,99091.38
2019-01-10T15:00:55.862Z,99096.94
2019-01-10T15:03:06.798Z,99094.34
2019-01-10T15:05:59.262Z,99098.62
2019-01-10T15:08:10.185Z,99099.09
2019-01-10T15:10:21.085Z,99106.78
2019-01-10T15:12:31.989Z,99104.66
2019-01-10T15:14:42.816Z,99114.88
2019-01-10T15:16:53.647Z,99118.78
2019-01-10T15:19:04.583Z,99120.47
2019-01-10T15:21:15.382Z,99122.59
2019-01-10T15:23:26.204Z,99123.03
2019-01-10T15:25:37.037Z,99120.06
2019-01-10T15:27:47.839Z,99123.47
2019-01-10T15:29:58.679Z,99124.31
2019-01-10T15:32:09.470Z,99126.50
2019-01-10T15:34:20.307Z,99120.97
2019-01-10T15:36:31.231Z,99131.18
2019-01-10T15:38:42.032Z,99124.84
2019-01-10T15:40:52.833Z,99129.95
2019-01-10T15:43:03.838Z,99135.55
2019-01-10T15:45:14.869Z,99134.27
2019-01-10T15:47:25.795Z,99131.27
2019-01-10T15:49:36.625Z,99138.11
2019-01-10T15:51:47.432Z,99133.02
2019-01-10T15:53:58.234Z,99134.77
2019-01-10T15:56:09.071Z,99134.38
2019-01-10T15:58:19.874Z,99134.76
2019-01-10T16:00:30.701Z,99133.97
2019-01-10T16:02:41.629Z,99139.09
2019-01-10T16:04:52.437Z,99137.84
2019-01-10T16:07:03.292Z,99139.17
2019-01-10T16:09:14.195Z,99138.79
2019-01-10T16:11:25.030Z,99140.50
2019-01-10T16:13:35.957Z,99149.88
2019-01-10T16:15:46.787Z,99152.44
2019-01-10T16:17:57.615Z,99137.13
2019-01-10T16:20:50.103Z,99152.88
2019-01-10T16:23:01.000Z,99151.13
2019-01-10T16:25:53.444Z,99159.22
2019-01-10T16:28:04.362Z,99158.35
2019-01-10T16:30:35.033Z,99160.48
2019-01-10T16:32:45.848Z,99160.09
2019-01-10T16:34:56.784Z,99166.08
2019-01-10T16:37:07.619Z,99169.10
2019-01-10T16:39:18.461Z,99167.83
2019-01-10T16:41:29.376Z,99171.66
2019-01-10T16:43:40.194Z,99171.66
2019-01-10T16:45:51.007Z,99175.51
2019-01-10T16:48:43.492Z,99180.65
2019-01-10T16:50:54.291Z,99173.84
2019-01-10T16:53:05.152Z,99178.98
2019-01-10T16:55:16.277Z,99176.86
2019-01-10T16:57:27.096Z,99175.58
2019-01-10T16:59:37.917Z,99181.52
2019-01-10T17:01:48.714Z,99179.39
2019-01-10T17:03:59.540Z,99181.55
2019-01-10T17:06:10.343Z,99181.56
2019-01-10T17:08:21.148Z,99190.96
2019-01-10T17:10:32.179Z,99186.69
2019-01-10T17:12:42.971Z,99186.70
2019-01-10T17:14:53.835Z,99187.58
2019-01-10T17:17:04.620Z,99189.70
2019-01-10T17:19:15.431Z,99196.09
2019-01-10T17:21:26.296Z,99191.42
2019-01-10T17:23:37.097Z,99188.02
2019-01-10T17:25:47.904Z,99193.99
2019-01-10T17:27:58.717Z,99193.17
2019-01-10T17:30:31.330Z,99194.00
2019-01-10T17:32:42.137Z,99197.81
2019-01-10T17:34:52.963Z,99198.23
2019-01-10T17:37:03.885Z,99196.54
2019-01-10T17:39:14.810Z,99194.81
2019-01-10T17:41:25.640Z,99199.98
2019-01-10T17:43:36.440Z,99205.52
2019-01-10T17:45:47.410Z,99205.11
2019-01-10T17:48:39.851Z,99204.23
2019-01-10T17:50:50.678Z,99210.23
2019-01-10T17:53:01.501Z,99213.22
2019-01-10T17:55:53.962Z,99222.59
2019-01-10T17:58:46.409Z,99222.59
2019-01-10T18:00:57.272Z,99220.88
2019-01-10T18:03:08.062Z,99226.06
2019-01-10T18:05:18.966Z,99227.36
2019-01-10T18:07:29.802Z,99235.45
2019-01-10T18:09:40.612Z,99232.87
2019-01-10T18:11:51.427Z,99236.29
2019-01-10T18:14:02.232Z,99240.53
2019-01-10T18:16:13.068Z,99240.52
2019-01-10T18:18:23.983Z,99241.39
2019-01-10T18:21:16.444Z,99241.80
2019-01-10T18:23:27.294Z,99245.22
2019-01-10T18:25:38.239Z,99242.27
2019-01-10T18:28:30.699Z,99240.11
2019-01-10T18:30:43.402Z,99241.39
2019-01-10T18:32:54.274Z,99244.80
2019-01-10T18:37:37.711Z,99246.93
2019-01-10T18:39:48.557Z,99252.48
2019-01-10T18:41:59.362Z,99257.17
2019-01-10T18:44:10.215Z,99255.93
2019-01-10T18:46:21.121Z,99257.20
2019-01-10T18:48:31.954Z,99259.33
2019-01-10T18:50:42.819Z,99263.59
2019-01-10T18:52:53.728Z,99262.77
2019-01-10T18:57:22.221Z,99253.36
2019-01-10T18:59:33.079Z,99249.95
2019-01-10T19:01:43.897Z,99252.94
2019-01-10T19:03:54.703Z,99255.06
2019-01-10T19:06:06.083Z,99259.33
2019-01-10T19:08:18.312Z,99254.23
2019-01-10T19:10:29.172Z,99255.95
2019-01-10T19:12:39.983Z,99253.81
2019-01-10T19:14:50.906Z,99254.22
2019-01-10T19:17:01.766Z,99259.34
2019-01-10T19:19:12.622Z,99262.36
2019-01-10T19:21:23.446Z,99256.37
2019-01-10T19:23:34.511Z,99257.65
2019-01-10T19:25:45.340Z,99259.78
2019-01-10T19:27:56.181Z,99260.22
2019-01-10T19:30:48.666Z,99260.20
2019-01-10T19:32:59.470Z,99263.59
2019-01-10T19:35:10.581Z,99264.02
2019-01-10T19:37:21.402Z,99261.52
2019-01-10T19:39:32.202Z,99264.51
2019-01-10T19:41:43.026Z,99263.65
2019-01-10T19:43:53.840Z,99267.05
2019-01-10T19:46:04.700Z,99261.11
2019-01-10T19:48:15.552Z,99258.12
2019-01-10T19:50:26.602Z,99261.55
2019-01-10T19:52:37.440Z,99257.72
2019-01-10T19:54:48.245Z,99256.44
2019-01-10T19:56:59.112Z,99259.83
2019-01-10T19:59:09.910Z,99264.11
2019-01-10T20:03:53.094Z,99268.86
2019-01-10T20:06:04.003Z,99269.71
2019-01-10T20:08:14.856Z,99271.42
2019-01-10T20:10:25.668Z,99273.19
2019-01-10T20:12:36.493Z,99280.88
2019-01-10T20:14:47.338Z,99275.34
2019-01-10T20:16:58.246Z,99280.89
2019-01-10T20:21:27.986Z,99293.69
2019-01-10T20:23:38.837Z,99296.24
2019-01-10T20:25:49.649Z,99286.44
2019-01-10T20:28:00.514Z,99286.88
2019-01-10T20:30:52.926Z,99291.55
2019-01-10T20:33:03.868Z,99287.31
2019-01-10T20:35:56.354Z,99287.76
2019-01-10T20:38:07.410Z,99288.17
2019-01-10T20:40:18.460Z,99294.13
2019-01-10T20:42:29.301Z,99295.41
2019-01-10T20:44:40.146Z,99292.87
2019-01-10T20:46:51.047Z,99294.97
2019-01-10T20:49:01.964Z,99299.22
2019-01-10T20:51:12.791Z,99299.27
2019-01-10T20:53:23.735Z,99308.21
2019-01-10T20:55:34.660Z,99308.63
2019-01-10T20:57:45.479Z,99305.21
2019-01-10T20:59:56.340Z,99306.45
2019-01-10T21:02:07.246Z,99306.47
2019-01-10T21:04:18.106Z,99307.36
2019-01-10T21:06:28.919Z,99314.67
2019-01-10T21:08:39.731Z,99319.38
2019-01-10T21:13:13.022Z,99318.97
2019-01-10T21:16:05.477Z,99319.41
2019-01-10T21:18:16.398Z,99311.75
2019-01-10T21:20:27.447Z,99307.92
2019-01-10T21:22:38.360Z,99318.58
2019-01-10T21:24:49.172Z,99320.72
2019-01-10T21:27:00.047Z,99316.02
2019-01-10T21:29:52.703Z,99315.16
2019-01-10T21:32:03.536Z,99313.05
2019-01-10T21:34:14.363Z,99309.64
2019-01-10T21:36:25.316Z,99313.03
2019-01-10T21:38:36.106Z,99312.19
2019-01-10T21:40:46.951Z,99320.28
2019-01-10T21:42:57.787Z,99319.42
2019-01-10T21:45:28.567Z,99319.02
2019-01-10T21:47:39.503Z,99316.45
2019-01-10T21:49:50.313Z,99318.58
2019-01-10T21:52:01.173Z,99320.27
2019-01-10T21:54:12.176Z,99320.27
2019-01-10T21:56:22.995Z,99317.72
2019-01-10T21:58:33.937Z,99324.13
2019-01-10T22:00:44.743Z,99325.41
2019-01-10T22:03:37.233Z,99323.25
2019-01-10T22:05:48.133Z,99325.38
2019-01-10T22:07:58.953Z,99329.20
2019-01-10T22:10:51.423Z,99329.20
2019-01-10T22:13:02.550Z,99325.38
2019-01-10T22:15:55.031Z,99324.53
2019-01-10T22:20:24.874Z,99326.20
2019-01-10T22:22:35.682Z,99327.05
2019-01-10T22:24:46.504Z,99327.44
2019-01-10T22:26:57.298Z,99327.05
2019-01-10T22:29:08.103Z,99323.20
2019-01-10T22:31:18.902Z,99317.66
2019-01-10T22:33:29.725Z,99310.42
2019-01-10T22:35:40.762Z,99321.05
2019-01-10T22:37:51.647Z,99318.89
2019-01-10T22:40:44.131Z,99314.20
2019-01-10T22:42:54.949Z,99318.87
2019-01-10T22:45:47.413Z,99313.77
2019-01-10T22:47:58.218Z,99310.78
2019-01-10T22:50:50.681Z,99307.31
2019-01-10T22:53:01.487Z,99314.54
2019-01-10T22:55:53.943Z,99317.05
2019-01-10T22:58:04.762Z,99311.52
2019-01-10T23:03:17.167Z,99314.03
2019-01-10T23:05:27.999Z,99316.14
2019-01-10T23:07:38.788Z,99314.44
2019-01-10T23:09:49.606Z,99317.43
2019-01-10T23:12:00.411Z,99314.42
2019-01-10T23:14:11.222Z,99312.69
2019-01-10T23:16:22.244Z,99315.62
2019-01-10T23:19:14.733Z,99316.45
2019-01-10T23:21:25.643Z,99314.77
2019-01-10T23:23:36.441Z,99315.19
2019-01-10T23:26:07.132Z,99318.59
2019-01-10T23:28:17.960Z,99316.49
2019-01-10T23:31:09.026Z,99321.56
2019-01-10T23:34:01.481Z,99321.59
2019-01-10T23:36:12.449Z,99316.84
2019-01-10T23:38:23.369Z,99314.69
2019-01-10T23:40:34.218Z,99312.50
2019-01-10T23:42:45.020Z,99309.88
2019-01-10T23:44:55.835Z,99306.03
2019-01-10T23:47:06.627Z,99315.31
2019-01-10T23:49:17.440Z,99309.30
2019-01-10T23:51:28.251Z,99314.36
2019-01-10T23:53:39.079Z,99319.39
2019-01-10T23:55:49.987Z,99326.54
2019-01-10T23:58:00.845Z,99335.38
